Time;durP1;ratioP1;P1;durP2;ratioP2;P2;SDS_P1;SDS_P2;PMS_P1;PMS_P2;Temp;Humidity;BMP_temperature;BMP_pressure;BME280_temperature;BME280_humidity;BME280_pressure;Samples;Min_cycle;Max_cycle;Signal;HPM_P1;HPM_P2
2023/05/24 00:00:14;;;;;;;4.55;2.90;;;20.70;52.10;;;;;;5073726;28;20198;-72
2023/05/24 00:02:46;;;;;;;4.93;3.22;;;20.70;52.10;;;;;;5075049;28;20236;-72
2023/05/24 00:05:13;;;;;;;5.28;2.83;;;20.70;52.10;;;;;;5074709;28;20217;-74
2023/05/24 00:07:39;;;;;;;4.35;3.00;;;20.60;52.10;;;;;;5074240;28;20178;-72
2023/05/24 00:10:05;;;;;;;4.22;2.58;;;20.60;52.00;;;;;;5074484;28;20178;-71
2023/05/24 00:12:31;;;;;;;3.28;2.42;;;20.60;52.10;;;;;;5074605;28;20174;-71
2023/05/24 00:14:56;;;;;;;3.03;2.33;;;20.60;52.10;;;;;;5074166;28;20236;-70
2023/05/24 00:17:23;;;;;;;4.95;2.67;;;20.60;52.10;;;;;;5074292;28;20637;-72
2023/05/24 00:19:49;;;;;;;4.15;2.22;;;20.60;52.10;;;;;;5073789;28;20556;-71
2023/05/24 00:22:14;;;;;;;4.72;2.90;;;20.60;52.00;;;;;;5074612;28;20166;-71
2023/05/24 00:24:40;;;;;;;4.70;2.80;;;20.60;52.00;;;;;;5074185;28;20688;-71
2023/05/24 00:27:10;;;;;;;5.13;2.42;;;20.60;51.90;;;;;;5072375;28;20638;-71
2023/05/24 00:29:36;;;;;;;3.53;2.47;;;20.60;52.00;;;;;;5074516;28;20174;-71
2023/05/24 00:32:01;;;;;;;3.17;2.22;;;20.60;52.00;;;;;;5074506;28;20167;-73
2023/05/24 00:34:27;;;;;;;4.85;2.33;;;20.50;52.00;;;;;;5073345;28;20197;-72
2023/05/24 00:36:52;;;;;;;3.88;2.63;;;20.50;51.90;;;;;;5073801;28;20312;-72
2023/05/24 00:39:18;;;;;;;4.45;2.20;;;20.50;51.90;;;;;;5074081;28;20178;-71
2023/05/24 00:41:43;;;;;;;4.18;2.13;;;20.50;51.90;;;;;;5073360;28;20177;-72
2023/05/24 00:44:09;;;;;;;3.80;2.65;;;20.50;51.90;;;;;;5073746;28;20218;-72
2023/05/24 00:46:35;;;;;;;3.47;2.22;;;20.50;51.80;;;;;;5074062;28;20170;-72
2023/05/24 00:49:00;;;;;;;3.85;2.25;;;20.50;51.90;;;;;;5072118;28;20193;-72
2023/05/24 00:51:26;;;;;;;5.72;2.58;;;20.50;51.90;;;;;;5073648;28;20163;-70
2023/05/24 00:53:52;;;;;;;5.05;2.55;;;20.50;51.90;;;;;;5072513;28;20182;-72
2023/05/24 00:56:17;;;;;;;4.93;2.38;;;20.50;51.90;;;;;;5072576;28;20178;-70
2023/05/24 00:58:43;;;;;;;3.10;2.25;;;20.50;51.90;;;;;;5073425;28;20625;-70
2023/05/24 01:01:13;;;;;;;5.18;1.88;;;20.40;51.90;;;;;;5073271;28;20174;-72
2023/05/24 01:03:38;;;;;;;5.20;2.47;;;20.50;52.00;;;;;;5072767;28;20206;-71
2023/05/24 01:06:06;;;;;;;3.90;2.25;;;20.50;51.90;;;;;;5073313;28;20181;-73
2023/05/24 01:09:01;;;;;;;4.50;2.30;;;20.40;51.80;;;;;;5073480;28;20178;-72
2023/05/24 01:11:35;;;;;;;3.85;2.00;;;20.40;51.90;;;;;;5064835;28;20538;-69
2023/05/24 01:14:37;;;;;;;2.50;1.77;;;20.40;51.80;;;;;;5072324;28;20184;-71
2023/05/24 01:17:13;;;;;;;4.70;1.80;;;20.40;51.80;;;;;;5071413;28;20174;-70
2023/05/24 01:20:01;;;;;;;4.47;1.98;;;20.40;51.80;;;;;;5073652;28;20217;-69
2023/05/24 01:22:54;;;;;;;4.50;2.25;;;20.40;51.80;;;;;;5073026;28;20170;-70
2023/05/24 01:25:27;;;;;;;3.53;1.67;;;20.40;51.80;;;;;;5072144;28;20260;-70
2023/05/24 01:27:52;;;;;;;3.95;2.03;;;20.40;51.80;;;;;;5071921;28;20216;-71
2023/05/24 01:30:18;;;;;;;3.25;1.95;;;20.40;51.90;;;;;;5070831;28;20170;-72
2023/05/24 01:32:43;;;;;;;2.90;1.90;;;20.40;52.40;;;;;;5072059;28;20228;-71
2023/05/24 01:35:09;;;;;;;3.78;2.00;;;20.40;52.50;;;;;;5071665;28;20181;-72
2023/05/24 01:37:35;;;;;;;3.70;2.30;;;20.30;51.80;;;;;;5072036;28;20249;-70
2023/05/24 01:40:00;;;;;;;3.50;2.00;;;20.40;51.80;;;;;;5072702;28;20179;-72
2023/05/24 01:42:40;;;;;;;3.33;2.20;;;20.30;51.80;;;;;;5072811;28;20174;-71
2023/05/24 01:45:08;;;;;;;3.05;1.85;;;20.30;51.80;;;;;;5070598;28;20726;-73
2023/05/24 01:47:37;;;;;;;3.58;1.90;;;20.30;51.70;;;;;;5071931;28;20179;-71
2023/05/24 01:50:21;;;;;;;5.60;2.38;;;20.30;51.70;;;;;;5071605;28;20207;-72
2023/05/24 01:52:47;;;;;;;4.45;2.03;;;20.30;52.30;;;;;;5070872;28;20186;-71
2023/05/24 01:55:14;;;;;;;3.40;1.92;;;20.30;51.80;;;;;;5071218;28;20532;-71
2023/05/24 01:57:40;;;;;;;3.05;1.80;;;20.20;51.70;;;;;;5071702;28;20253;-69
2023/05/24 02:00:06;;;;;;;2.17;1.80;;;20.30;51.80;;;;;;5071794;28;20197;-71
2023/05/24 02:02:32;;;;;;;4.20;1.95;;;20.30;51.80;;;;;;5071527;28;20174;-71
2023/05/24 02:04:57;;;;;;;3.85;2.05;;;20.30;51.70;;;;;;5071303;28;20263;-72
2023/05/24 02:07:25;;;;;;;3.50;1.80;;;20.20;51.70;;;;;;5071378;28;20167;-72
2023/05/24 02:09:51;;;;;;;3.60;1.77;;;20.20;51.70;;;;;;5072691;28;20189;-71
2023/05/24 02:12:16;;;;;;;4.25;2.10;;;20.20;51.70;;;;;;5071701;28;20170;-71
2023/05/24 02:14:42;;;;;;;2.85;2.10;;;20.20;51.80;;;;;;5072828;28;20175;-71
2023/05/24 02:17:10;;;;;;;3.60;2.15;;;20.20;51.70;;;;;;5072544;28;20189;-70
2023/05/24 02:19:36;;;;;;;6.43;2.13;;;20.20;51.80;;;;;;5071865;28;21006;-69
2023/05/24 02:22:02;;;;;;;2.50;1.40;;;20.20;51.70;;;;;;5072470;28;20808;-70
2023/05/24 02:24:27;;;;;;;4.00;2.22;;;20.20;51.70;;;;;;5072407;28;20297;-70
2023/05/24 02:26:54;;;;;;;4.53;2.00;;;20.20;51.80;;;;;;5071901;28;20705;-71
2023/05/24 02:29:21;;;;;;;3.40;1.60;;;20.20;51.80;;;;;;5072281;28;20182;-71
2023/05/24 02:31:49;;;;;;;3.00;1.85;;;20.20;51.70;;;;;;5072416;28;20275;-74
2023/05/24 02:34:14;;;;;;;3.80;1.85;;;20.20;52.40;;;;;;5071338;28;20202;-72
2023/05/24 02:36:41;;;;;;;3.80;1.75;;;20.10;51.70;;;;;;5072306;28;20253;-71
2023/05/24 02:39:07;;;;;;;3.50;1.80;;;20.10;51.60;;;;;;5072207;28;20179;-71
2023/05/24 02:41:32;;;;;;;3.33;1.60;;;20.10;51.60;;;;;;5071666;28;20186;-71
2023/05/24 02:43:58;;;;;;;5.18;2.28;;;20.10;51.70;;;;;;5072096;28;20283;-72
2023/05/24 02:46:23;;;;;;;5.15;2.35;;;20.10;51.60;;;;;;5071965;28;20213;-72
2023/05/24 02:48:49;;;;;;;2.08;1.75;;;20.10;51.70;;;;;;5071492;28;20270;-73
2023/05/24 02:51:14;;;;;;;2.63;1.70;;;20.10;51.70;;;;;;5074161;28;20171;-71
2023/05/24 02:53:42;;;;;;;3.42;1.88;;;20.10;51.70;;;;;;5076074;28;20186;-70
2023/05/24 02:56:07;;;;;;;4.30;2.20;;;20.10;51.70;;;;;;5075304;28;20186;-71
2023/05/24 02:58:33;;;;;;;3.83;1.88;;;20.00;51.60;;;;;;5076757;28;20223;-70
2023/05/24 03:01:00;;;;;;;3.28;1.77;;;20.10;51.70;;;;;;5076500;28;20202;-73
2023/05/24 03:03:25;;;;;;;2.95;1.60;;;20.10;51.70;;;;;;5073530;28;20198;-72
2023/05/24 03:05:51;;;;;;;3.13;1.70;;;20.00;51.60;;;;;;5076089;28;20548;-72
2023/05/24 03:08:17;;;;;;;4.20;2.22;;;20.10;51.60;;;;;;5075680;28;20534;-72
2023/05/24 03:10:42;;;;;;;4.20;1.83;;;20.00;51.60;;;;;;5075078;28;20178;-71
2023/05/24 03:13:08;;;;;;;3.08;1.80;;;20.00;51.60;;;;;;5075501;28;20174;-71
2023/05/24 03:15:33;;;;;;;3.90;2.33;;;20.00;51.60;;;;;;5075184;28;20331;-70
2023/05/24 03:17:59;;;;;;;2.80;1.58;;;20.00;51.60;;;;;;5075654;28;20724;-70
2023/05/24 03:20:25;;;;;;;4.22;2.25;;;20.00;51.70;;;;;;5075535;28;20193;-70
2023/05/24 03:22:51;;;;;;;2.33;1.42;;;20.00;51.60;;;;;;5075225;28;20171;-71
2023/05/24 03:25:16;;;;;;;3.72;1.90;;;20.00;51.70;;;;;;5075373;28;20210;-71
2023/05/24 03:27:42;;;;;;;1.90;1.40;;;20.00;51.60;;;;;;5075530;28;20249;-71
2023/05/24 03:30:08;;;;;;;5.07;2.03;;;20.00;51.70;;;;;;5074514;28;20167;-73
2023/05/24 03:32:33;;;;;;;3.28;1.77;;;20.00;51.70;;;;;;5075297;28;20173;-72
2023/05/24 03:35:00;;;;;;;2.38;1.45;;;19.90;51.60;;;;;;5075389;28;20265;-72
2023/05/24 03:37:26;;;;;;;2.85;1.40;;;19.90;51.60;;;;;;5074212;28;20297;-70
2023/05/24 03:39:51;;;;;;;4.05;2.08;;;19.90;51.60;;;;;;5075334;28;20210;-72
2023/05/24 03:42:17;;;;;;;3.30;1.65;;;19.90;51.60;;;;;;5074716;28;20692;-71
2023/05/24 03:44:42;;;;;;;4.20;2.03;;;19.90;51.60;;;;;;5074393;28;20206;-72
2023/05/24 03:47:08;;;;;;;3.25;1.98;;;19.90;51.60;;;;;;5074650;28;20516;-72
2023/05/24 03:49:33;;;;;;;4.00;1.58;;;19.90;51.50;;;;;;5074897;28;20269;-72
2023/05/24 03:51:59;;;;;;;2.95;1.70;;;19.90;51.50;;;;;;5074149;28;20178;-71
2023/05/24 03:54:25;;;;;;;4.15;1.83;;;19.90;51.50;;;;;;5074616;28;20178;-71
2023/05/24 03:56:52;;;;;;;3.78;2.00;;;19.90;51.50;;;;;;5075075;28;20205;-70
2023/05/24 03:59:17;;;;;;;2.97;1.55;;;19.90;51.70;;;;;;5073894;28;20231;-70
2023/05/24 04:01:43;;;;;;;3.35;2.00;;;19.90;51.50;;;;;;5073512;28;20178;-71
2023/05/24 04:04:08;;;;;;;4.70;1.50;;;19.90;51.60;;;;;;5074225;28;20567;-71
2023/05/24 04:06:37;;;;;;;3.42;1.90;;;19.90;51.60;;;;;;5074217;28;20167;-72
2023/05/24 04:09:04;;;;;;;3.33;1.65;;;19.90;51.50;;;;;;5074827;28;20175;-70
2023/05/24 04:11:31;;;;;;;3.05;1.80;;;19.90;51.60;;;;;;5074766;28;20174;-69
2023/05/24 04:13:59;;;;;;;2.75;1.45;;;19.90;51.50;;;;;;5074073;28;20183;-71
2023/05/24 04:16:25;;;;;;;3.10;1.60;;;19.90;51.60;;;;;;5074290;28;20632;-69
2023/05/24 04:18:50;;;;;;;3.70;1.40;;;19.90;51.50;;;;;;5074083;28;20179;-69
2023/05/24 04:21:16;;;;;;;3.97;2.00;;;19.80;51.50;;;;;;5074394;28;20508;-70
2023/05/24 04:23:41;;;;;;;3.47;1.80;;;19.80;51.50;;;;;;5073435;28;20228;-69
2023/05/24 04:26:09;;;;;;;3.53;1.60;;;19.90;51.60;;;;;;5073533;28;20170;-71
2023/05/24 04:28:35;;;;;;;3.20;1.85;;;19.90;52.20;;;;;;5074305;28;20185;-71
2023/05/24 04:31:00;;;;;;;4.13;1.63;;;19.90;51.70;;;;;;5074239;28;20175;-73
2023/05/24 04:33:26;;;;;;;3.13;1.88;;;19.90;51.60;;;;;;5073140;28;20178;-72
2023/05/24 04:35:52;;;;;;;2.65;1.73;;;19.90;51.70;;;;;;5074152;28;20253;-73
2023/05/24 04:38:18;;;;;;;3.30;1.90;;;19.90;51.70;;;;;;5074123;28;20663;-71
2023/05/24 04:40:44;;;;;;;2.97;1.60;;;19.90;51.60;;;;;;5073509;28;20174;-72
2023/05/24 04:43:10;;;;;;;4.70;2.00;;;19.90;51.70;;;;;;5073886;28;20642;-73
2023/05/24 04:45:36;;;;;;;3.10;1.50;;;19.80;51.70;;;;;;5074067;28;20191;-73
2023/05/24 04:48:01;;;;;;;4.53;2.72;;;19.90;51.80;;;;;;5073151;28;20262;-73
2023/05/24 04:50:27;;;;;;;2.40;1.40;;;19.90;51.70;;;;;;5073668;28;20182;-73
2023/05/24 04:52:53;;;;;;;3.33;1.65;;;19.80;51.60;;;;;;5073707;28;20633;-72
2023/05/24 04:55:18;;;;;;;4.05;2.20;;;19.80;51.80;;;;;;5072930;28;20181;-72
2023/05/24 04:57:44;;;;;;;3.03;1.80;;;19.90;51.80;;;;;;5073969;28;20644;-71
2023/05/24 05:00:10;;;;;;;4.15;2.20;;;19.90;51.80;;;;;;5073480;28;20244;-72
2023/05/24 05:02:36;;;;;;;4.53;1.52;;;19.90;51.80;;;;;;5071723;28;20202;-71
2023/05/24 05:05:05;;;;;;;5.70;2.05;;;19.90;51.80;;;;;;5073998;28;20234;-73
2023/05/24 05:07:30;;;;;;;4.47;1.90;;;19.90;51.80;;;;;;5073818;28;20185;-72
2023/05/24 05:09:56;;;;;;;3.35;1.75;;;19.90;51.80;;;;;;5073182;28;20174;-72
2023/05/24 05:12:21;;;;;;;3.72;2.08;;;19.90;51.80;;;;;;5073297;28;20201;-71
2023/05/24 05:14:47;;;;;;;5.35;1.70;;;19.90;51.80;;;;;;5073144;28;20277;-72
2023/05/24 05:17:12;;;;;;;4.28;2.20;;;19.90;51.80;;;;;;5072438;28;20689;-70
2023/05/24 05:19:38;;;;;;;4.25;1.90;;;19.90;51.80;;;;;;5073308;28;20257;-70
2023/05/24 05:22:03;;;;;;;4.25;1.70;;;19.90;51.80;;;;;;5073413;28;20170;-71
2023/05/24 05:24:29;;;;;;;3.08;1.95;;;19.90;51.90;;;;;;5071960;28;20206;-70
2023/05/24 05:26:54;;;;;;;3.70;1.55;;;19.90;51.90;;;;;;5073188;28;20176;-72
2023/05/24 05:29:20;;;;;;;3.65;2.08;;;19.90;52.50;;;;;;5072080;28;20170;-71
2023/05/24 05:31:46;;;;;;;3.33;1.70;;;19.90;52.00;;;;;;5073360;28;20185;-72
2023/05/24 05:34:11;;;;;;;6.63;2.45;;;19.90;52.10;;;;;;5072990;28;20198;-73
2023/05/24 05:36:41;;;;;;;3.35;1.52;;;19.90;52.10;;;;;;5072572;28;20226;-71
2023/05/24 05:39:10;;;;;;;4.55;2.13;;;19.90;52.00;;;;;;5073060;28;20186;-72
2023/05/24 05:41:37;;;;;;;4.30;2.22;;;20.00;52.00;;;;;;5073052;28;20170;-71
2023/05/24 05:44:03;;;;;;;6.88;2.13;;;20.00;52.00;;;;;;5072042;28;20297;-73
2023/05/24 05:46:28;;;;;;;3.80;1.98;;;20.00;52.10;;;;;;5072844;28;20213;-74
2023/05/24 05:48:54;;;;;;;3.72;1.95;;;20.00;52.10;;;;;;5073211;28;20257;-74
2023/05/24 05:51:19;;;;;;;5.57;2.22;;;20.10;52.10;;;;;;5072030;28;20273;-73
2023/05/24 05:53:48;;;;;;;3.58;2.28;;;20.00;52.10;;;;;;5073011;28;20170;-71
2023/05/24 05:56:13;;;;;;;4.57;2.20;;;20.00;52.30;;;;;;5072437;28;20174;-71
2023/05/24 05:58:39;;;;;;;3.45;1.98;;;20.00;52.30;;;;;;5072117;28;20710;-70
2023/05/24 06:01:04;;;;;;;3.42;2.15;;;20.00;52.60;;;;;;5072769;28;20661;-71
2023/05/24 06:03:30;;;;;;;3.72;2.20;;;20.00;52.20;;;;;;5072925;28;20213;-72
2023/05/24 06:05:55;;;;;;;4.18;1.77;;;20.00;52.30;;;;;;5072280;28;20182;-73
2023/05/24 06:08:21;;;;;;;3.97;2.10;;;20.00;52.30;;;;;;5072489;28;20181;-73
2023/05/24 06:10:46;;;;;;;3.08;2.05;;;20.00;52.50;;;;;;5072616;28;20538;-71
2023/05/24 06:13:12;;;;;;;6.55;2.50;;;20.00;52.60;;;;;;5071659;28;20547;-71
2023/05/24 06:15:38;;;;;;;4.32;2.30;;;19.90;52.60;;;;;;5072553;28;20174;-69
2023/05/24 06:18:04;;;;;;;4.80;1.85;;;19.90;52.70;;;;;;5072658;28;20189;-71
2023/05/24 06:20:29;;;;;;;4.80;2.20;;;19.90;52.70;;;;;;5071732;28;20178;-71
2023/05/24 06:22:55;;;;;;;3.28;2.20;;;19.90;52.70;;;;;;5072777;28;20176;-71
2023/05/24 06:25:23;;;;;;;4.45;1.80;;;19.90;52.70;;;;;;5073077;28;20305;-71
2023/05/24 06:27:51;;;;;;;4.15;2.00;;;19.90;52.70;;;;;;5076051;28;20216;-72
2023/05/24 06:30:17;;;;;;;5.95;2.28;;;19.90;52.70;;;;;;5076559;28;20198;-73
2023/05/24 06:32:42;;;;;;;5.32;2.40;;;19.90;52.70;;;;;;5076012;28;20645;-72
2023/05/24 06:35:08;;;;;;;3.13;2.17;;;19.90;52.70;;;;;;5076210;28;20174;-68
2023/05/24 06:37:34;;;;;;;4.93;2.05;;;20.00;52.80;;;;;;5076216;28;20600;-69
2023/05/24 06:40:00;;;;;;;4.00;2.28;;;20.00;52.70;;;;;;5075754;28;20175;-72
2023/05/24 06:42:25;;;;;;;5.18;2.40;;;20.00;52.70;;;;;;5076374;28;20178;-72
2023/05/24 06:44:51;;;;;;;5.40;2.30;;;20.00;52.70;;;;;;5076468;28;20571;-72
2023/05/24 06:47:16;;;;;;;8.52;3.05;;;20.00;52.80;;;;;;5075175;28;20623;-73
2023/05/24 06:49:42;;;;;;;6.05;2.17;;;20.00;52.70;;;;;;5076315;28;20182;-73
2023/05/24 06:52:08;;;;;;;7.20;1.98;;;20.10;52.80;;;;;;5076020;28;20182;-74
2023/05/24 06:54:33;;;;;;;5.57;2.67;;;20.10;52.90;;;;;;5075495;28;20209;-71
2023/05/24 06:56:59;;;;;;;4.78;2.15;;;20.00;52.80;;;;;;5075897;28;20179;-72
2023/05/24 06:59:24;;;;;;;6.82;2.60;;;20.00;52.80;;;;;;5075803;28;20178;-76
2023/05/24 07:01:56;;;;;;;4.93;2.35;;;20.00;52.90;;;;;;5075559;28;20178;-76
2023/05/24 07:04:22;;;;;;;5.10;2.50;;;20.00;52.90;;;;;;5074591;28;20206;-74
2023/05/24 07:06:47;;;;;;;7.40;2.45;;;20.00;53.00;;;;;;5075918;28;20648;-77
2023/05/24 07:09:13;;;;;;;4.80;2.47;;;20.00;53.00;;;;;;5074982;28;20182;-74
2023/05/24 07:11:39;;;;;;;4.90;2.30;;;20.00;53.00;;;;;;5076237;28;20167;-71
2023/05/24 07:14:05;;;;;;;4.85;2.70;;;20.10;53.80;;;;;;5075664;28;20633;-72
2023/05/24 07:16:30;;;;;;;5.60;2.40;;;20.10;53.10;;;;;;5075480;28;20171;-71
2023/05/24 07:18:57;;;;;;;4.72;2.35;;;20.10;53.10;;;;;;5075829;28;20518;-72
2023/05/24 07:21:22;;;;;;;7.88;2.67;;;20.20;53.10;;;;;;5075320;28;20647;-72
2023/05/24 07:23:49;;;;;;;8.27;2.97;;;20.10;53.30;;;;;;5074873;28;20206;-73
2023/05/24 07:26:15;;;;;;;5.80;2.40;;;20.20;53.40;;;;;;5075373;28;20691;-73
2023/05/24 07:28:41;;;;;;;4.55;2.60;;;20.20;53.40;;;;;;5075566;28;20249;-72
2023/05/24 07:31:08;;;;;;;4.32;2.20;;;20.20;53.20;;;;;;5074963;28;20571;-76
2023/05/24 07:33:35;;;;;;;6.07;2.65;;;20.20;53.30;;;;;;5075516;28;20258;-73
2023/05/24 07:36:01;;;;;;;6.88;2.53;;;20.20;53.40;;;;;;5074485;28;20225;-75
2023/05/24 07:38:28;;;;;;;6.38;2.47;;;20.20;53.40;;;;;;5075097;28;20633;-72
2023/05/24 07:40:53;;;;;;;7.25;3.17;;;20.20;53.40;;;;;;5075336;28;20178;-73
2023/05/24 07:43:19;;;;;;;8.65;2.50;;;20.20;53.40;;;;;;5074145;28;20178;-75
2023/05/24 07:45:44;;;;;;;4.32;2.25;;;20.20;53.40;;;;;;5075554;28;20182;-74
2023/05/24 07:48:10;;;;;;;5.10;2.25;;;20.20;53.30;;;;;;5074975;28;20193;-74
2023/05/24 07:50:36;;;;;;;4.70;2.30;;;20.30;53.20;;;;;;5074541;28;20174;-73
2023/05/24 07:53:01;;;;;;;4.97;2.28;;;20.40;53.20;;;;;;5075083;28;20547;-71
2023/05/24 07:55:27;;;;;;;3.97;2.17;;;20.40;53.10;;;;;;5074688;28;20182;-72
2023/05/24 07:57:52;;;;;;;5.53;2.45;;;20.50;53.00;;;;;;5074488;28;20652;-73
2023/05/24 08:00:18;;;;;;;6.05;2.55;;;20.50;53.00;;;;;;5074893;28;20216;-78
2023/05/24 08:02:45;;;;;;;5.72;2.55;;;20.40;53.10;;;;;;5075112;28;20551;-78
2023/05/24 08:05:13;;;;;;;5.13;2.47;;;20.50;53.10;;;;;;5073531;28;20217;-79
2023/05/24 08:07:40;;;;;;;6.53;3.13;;;20.50;53.10;;;;;;5074859;28;20236;-76
2023/05/24 08:10:07;;;;;;;4.35;2.20;;;20.50;53.20;;;;;;5074793;28;20178;-73
2023/05/24 08:12:33;;;;;;;5.05;2.38;;;20.50;53.30;;;;;;5073939;28;20660;-73
2023/05/24 08:14:58;;;;;;;6.13;2.50;;;20.50;53.40;;;;;;5074680;28;20178;-71
2023/05/24 08:17:25;;;;;;;5.28;2.30;;;20.50;53.40;;;;;;5074430;28;20175;-69
2023/05/24 08:19:51;;;;;;;5.78;2.30;;;20.40;53.40;;;;;;5073798;28;20178;-71
2023/05/24 08:22:16;;;;;;;5.32;2.50;;;20.40;53.50;;;;;;5074185;28;20560;-71
2023/05/24 08:24:42;;;;;;;6.53;2.40;;;20.50;53.50;;;;;;5074708;28;20232;-71
2023/05/24 08:27:07;;;;;;;5.68;2.33;;;20.50;53.40;;;;;;5073718;28;20177;-72
2023/05/24 08:29:34;;;;;;;2.97;2.28;;;20.50;53.40;;;;;;5074639;28;20216;-75
2023/05/24 08:32:00;;;;;;;4.93;2.30;;;20.40;53.40;;;;;;5074266;28;20171;-76
2023/05/24 08:34:25;;;;;;;6.05;2.50;;;20.40;53.40;;;;;;5073440;28;20174;-73
2023/05/24 08:36:51;;;;;;;5.28;2.33;;;20.40;53.40;;;;;;5074099;28;20564;-75
2023/05/24 08:39:16;;;;;;;5.35;2.38;;;20.50;53.40;;;;;;5073474;28;20535;-74
2023/05/24 08:41:42;;;;;;;4.72;2.40;;;20.40;53.40;;;;;;5074200;28;20544;-73
2023/05/24 08:44:08;;;;;;;5.47;2.33;;;20.50;53.30;;;;;;5072672;28;20206;-77
2023/05/24 08:46:36;;;;;;;4.53;2.53;;;20.50;53.30;;;;;;5072226;28;20174;-72
2023/05/24 08:49:02;;;;;;;4.07;2.58;;;20.60;53.10;;;;;;5073402;28;20509;-75
2023/05/24 08:51:31;;;;;;;7.20;2.63;;;20.60;53.00;;;;;;5073586;28;20178;-72
2023/05/24 08:53:59;;;;;;;6.47;2.50;;;20.50;53.10;;;;;;5073571;28;20175;-74
2023/05/24 08:56:28;;;;;;;6.40;2.30;;;20.50;53.20;;;;;;5073938;28;20175;-73
2023/05/24 08:58:54;;;;;;;6.18;2.65;;;20.50;53.20;;;;;;5074032;28;20177;-73
2023/05/24 09:01:20;;;;;;;6.35;2.55;;;20.50;53.30;;;;;;5072963;28;20548;-75
2023/05/24 09:03:46;;;;;;;7.82;2.63;;;20.50;53.30;;;;;;5073691;28;20199;-76
2023/05/24 09:06:12;;;;;;;6.30;2.50;;;20.50;53.30;;;;;;5073795;28;20182;-75
2023/05/24 09:08:37;;;;;;;5.18;2.25;;;20.50;53.30;;;;;;5073214;28;20174;-73
2023/05/24 09:11:03;;;;;;;6.18;2.55;;;20.50;53.30;;;;;;5072444;28;20179;-72
2023/05/24 09:13:28;;;;;;;5.25;2.28;;;20.50;53.30;;;;;;5072189;28;20166;-72
2023/05/24 09:15:54;;;;;;;5.63;2.42;;;20.40;53.40;;;;;;5071783;28;20182;-72
2023/05/24 09:18:19;;;;;;;4.72;2.10;;;20.40;53.40;;;;;;5072119;28;20170;-73
2023/05/24 09:20:45;;;;;;;4.88;1.85;;;20.40;53.50;;;;;;5073491;28;20551;-72
2023/05/24 09:23:11;;;;;;;5.28;2.40;;;20.40;53.50;;;;;;5072731;28;20526;-73
2023/05/24 09:25:45;;;;;;;8.20;2.30;;;20.30;53.50;;;;;;5072514;28;20210;-72
2023/05/24 09:28:16;;;;;;;3.67;2.47;;;20.30;53.50;;;;;;5072072;28;20236;-72
2023/05/24 09:30:42;;;;;;;4.70;1.88;;;20.30;53.60;;;;;;5071833;28;20173;-75
2023/05/24 09:33:08;;;;;;;5.55;2.30;;;20.40;53.60;;;;;;5072943;28;20182;-75
2023/05/24 09:35:35;;;;;;;4.80;2.53;;;20.30;53.40;;;;;;5072680;28;20792;-73
2023/05/24 09:38:02;;;;;;;5.95;2.03;;;20.40;53.40;;;;;;5073019;28;20237;-74
2023/05/24 09:40:28;;;;;;;3.10;2.35;;;20.40;53.40;;;;;;5072978;28;20256;-72
2023/05/24 09:43:08;;;;;;;3.55;2.10;;;20.40;53.40;;;;;;5072349;28;20177;-75
2023/05/24 09:45:39;;;;;;;5.28;2.35;;;20.40;53.40;;;;;;5072987;28;20220;-74
2023/05/24 09:48:12;;;;;;;5.15;2.25;;;20.40;53.40;;;;;;5072954;28;20259;-74
2023/05/24 09:50:37;;;;;;;4.75;2.55;;;20.40;53.40;;;;;;5072311;28;20174;-73
2023/05/24 09:53:03;;;;;;;5.80;2.45;;;20.50;53.30;;;;;;5073143;28;20224;-72
2023/05/24 09:55:29;;;;;;;4.28;2.17;;;20.40;53.30;;;;;;5071457;28;20170;-72
2023/05/24 09:58:04;;;;;;;4.75;2.35;;;20.40;53.40;;;;;;5072162;28;20170;-74
2023/05/24 10:00:39;;;;;;;3.72;2.17;;;20.40;53.30;;;;;;5073097;28;20215;-74
2023/05/24 10:03:06;;;;;;;4.85;2.38;;;20.40;53.40;;;;;;5072503;28;20543;-75
2023/05/24 10:05:32;;;;;;;4.07;2.03;;;20.40;53.50;;;;;;5072186;28;20225;-74
2023/05/24 10:07:58;;;;;;;7.82;2.67;;;20.40;53.50;;;;;;5073007;28;20171;-76
2023/05/24 10:10:26;;;;;;;4.22;2.17;;;20.40;53.40;;;;;;5072573;28;20174;-72
2023/05/24 10:13:01;;;;;;;4.55;2.15;;;20.50;53.30;;;;;;5072063;28;20645;-72
2023/05/24 10:15:27;;;;;;;5.50;2.85;;;20.50;53.30;;;;;;5072488;28;20174;-71
2023/05/24 10:17:53;;;;;;;5.22;2.40;;;20.50;53.20;;;;;;5072201;28;20182;-72
2023/05/24 10:20:19;;;;;;;4.38;2.15;;;20.50;53.10;;;;;;5072448;28;20224;-72
2023/05/24 10:22:46;;;;;;;2.95;2.17;;;20.60;53.10;;;;;;5072530;28;20635;-72
2023/05/24 10:25:20;;;;;;;5.45;2.70;;;20.60;53.00;;;;;;5071471;28;20213;-71
2023/05/24 10:27:46;;;;;;;3.75;1.80;;;20.60;53.20;;;;;;5071728;28;20174;-74
2023/05/24 10:30:34;;;;;;;2.47;2.00;;;20.70;53.00;;;;;;5054567;28;20227;-76
2023/05/24 10:33:00;;;;;;;4.60;2.45;;;20.60;52.90;;;;;;5071934;28;20257;-74
2023/05/24 10:35:26;;;;;;;4.22;2.17;;;20.60;53.00;;;;;;5071054;28;20235;-73
2023/05/24 10:37:53;;;;;;;6.63;2.88;;;20.60;53.00;;;;;;5071125;28;20692;-74
2023/05/24 10:40:19;;;;;;;4.85;2.40;;;20.60;53.00;;;;;;5054010;28;20174;-75
2023/05/24 10:42:45;;;;;;;3.42;1.90;;;20.60;53.10;;;;;;5072558;28;20617;-76
2023/05/24 10:45:31;;;;;;;4.75;2.40;;;20.60;53.00;;;;;;5072263;28;20229;-76
2023/05/24 10:48:00;;;;;;;4.60;2.08;;;20.60;53.00;;;;;;5071869;28;20175;-76
2023/05/24 10:50:26;;;;;;;3.13;2.03;;;20.60;53.20;;;;;;5070865;28;20644;-72
2023/05/24 10:53:09;;;;;;;3.13;2.22;;;20.60;53.30;;;;;;5053850;28;20183;-74
2023/05/24 10:55:35;;;;;;;3.70;2.35;;;20.70;53.00;;;;;;5056926;28;20174;-71
2023/05/24 10:58:00;;;;;;;4.13;2.13;;;20.70;52.80;;;;;;5072515;28;20557;-73
2023/05/24 11:00:27;;;;;;;4.15;2.47;;;20.80;52.70;;;;;;5053178;28;20546;-77
2023/05/24 11:03:03;;;;;;;4.25;2.30;;;20.80;52.80;;;;;;5072616;28;20175;-78
2023/05/24 11:05:35;;;;;;;3.00;2.00;;;20.70;52.70;;;;;;5070888;28;20240;-77
2023/05/24 11:08:02;;;;;;;2.95;2.05;;;20.70;52.90;;;;;;5071508;28;20239;-75
2023/05/24 11:10:31;;;;;;;2.35;1.70;;;20.70;53.00;;;;;;5072102;28;20178;-72
2023/05/24 11:12:59;;;;;;;3.08;1.88;;;20.70;53.10;;;;;;5075384;28;20174;-72
2023/05/24 11:15:24;;;;;;;3.95;2.13;;;20.70;53.00;;;;;;5074951;28;20358;-71
2023/05/24 11:18:08;;;;;;;4.13;1.83;;;20.70;53.00;;;;;;5058180;28;20654;-72
2023/05/24 11:20:34;;;;;;;3.90;2.15;;;20.90;52.80;;;;;;5075899;28;20171;-71
2023/05/24 11:23:02;;;;;;;4.00;2.35;;;21.00;52.60;;;;;;5075283;28;20239;-72
2023/05/24 11:25:28;;;;;;;4.68;2.42;;;20.90;52.70;;;;;;5074014;28;20217;-72
2023/05/24 11:27:55;;;;;;;4.70;2.38;;;20.90;52.90;;;;;;5057230;28;20644;-74
2023/05/24 11:30:21;;;;;;;4.30;2.13;;;20.80;53.00;;;;;;5074552;28;20182;-75
2023/05/24 11:32:47;;;;;;;5.05;1.88;;;20.80;53.00;;;;;;5075391;28;20167;-79
2023/05/24 11:35:13;;;;;;;3.83;1.98;;;20.80;53.00;;;;;;5076083;28;20166;-77
2023/05/24 11:37:39;;;;;;;6.05;2.05;;;20.80;53.00;;;;;;5075411;28;20231;-74
2023/05/24 11:40:05;;;;;;;2.97;2.00;;;20.80;53.00;;;;;;5075529;28;20178;-76
2023/05/24 11:42:31;;;;;;;3.72;2.05;;;20.80;53.10;;;;;;5073422;28;20640;-75
2023/05/24 11:44:56;;;;;;;4.95;2.20;;;20.90;53.10;;;;;;5074155;28;20218;-75
2023/05/24 11:47:22;;;;;;;3.92;2.28;;;20.90;53.00;;;;;;5073845;28;20182;-75
2023/05/24 11:49:51;;;;;;;3.08;2.00;;;20.90;53.00;;;;;;5074714;28;20743;-73
2023/05/24 11:52:16;;;;;;;4.63;1.92;;;21.00;52.90;;;;;;5075107;28;20251;-74
2023/05/24 11:54:42;;;;;;;4.72;2.30;;;21.10;52.80;;;;;;5075187;28;20629;-72
2023/05/24 11:57:11;;;;;;;3.78;2.20;;;21.00;52.80;;;;;;5074068;28;20182;-73
2023/05/24 11:59:37;;;;;;;4.88;2.40;;;21.00;53.00;;;;;;5074042;28;20183;-74
2023/05/24 12:02:04;;;;;;;3.50;1.90;;;21.00;53.00;;;;;;5073897;28;20174;-76
2023/05/24 12:04:30;;;;;;;4.15;2.15;;;20.90;53.60;;;;;;5074412;28;20206;-75
2023/05/24 12:06:56;;;;;;;4.93;2.17;;;20.90;53.00;;;;;;5075232;28;20170;-77
2023/05/24 12:09:22;;;;;;;2.72;1.83;;;20.90;53.10;;;;;;5074752;28;20190;-75
2023/05/24 12:11:49;;;;;;;2.38;1.80;;;21.00;53.10;;;;;;5074394;28;20524;-73
2023/05/24 12:14:16;;;;;;;3.67;2.03;;;21.00;53.10;;;;;;5074528;28;20531;-72
2023/05/24 12:16:42;;;;;;;3.67;1.92;;;21.00;53.20;;;;;;5074817;28;20179;-72
2023/05/24 12:19:11;;;;;;;3.60;1.75;;;21.00;53.10;;;;;;5073825;28;20257;-73
2023/05/24 12:21:40;;;;;;;4.82;2.17;;;21.00;53.10;;;;;;5074539;28;20206;-72
2023/05/24 12:24:15;;;;;;;3.30;2.10;;;21.00;53.00;;;;;;5073216;28;20213;-73
2023/05/24 12:26:48;;;;;;;2.53;1.83;;;21.00;53.10;;;;;;5074617;28;20178;-72
2023/05/24 12:29:13;;;;;;;3.33;1.90;;;21.00;53.00;;;;;;5074424;28;20222;-74
2023/05/24 12:31:48;;;;;;;4.28;2.03;;;21.00;53.00;;;;;;5073882;28;20652;-74
2023/05/24 12:34:17;;;;;;;1.75;1.63;;;21.00;53.00;;;;;;5074191;28;20177;-75
2023/05/24 12:36:43;;;;;;;3.33;2.00;;;21.00;53.10;;;;;;5074364;28;20230;-75
2023/05/24 12:39:41;;;;;;;3.42;1.85;;;21.00;53.10;;;;;;5073568;28;20304;-74
2023/05/24 12:42:06;;;;;;;2.15;1.95;;;21.10;53.10;;;;;;5065681;28;20194;-77
2023/05/24 12:44:36;;;;;;;2.95;2.05;;;21.10;53.00;;;;;;5074186;28;20260;-74
2023/05/24 12:47:02;;;;;;;2.55;1.83;;;21.00;53.00;;;;;;5073686;28;20167;-75